Burnley, United Kingdom
Current Conditions -  °F | °C
As of 7:20 PM on Saturday 25 Oct 2014 (Local Time) from EGNM Reporting Station
Scattered Clouds Scattered Clouds  
Wind Chill: 52°   Ceiling: Unl
Heat Index: 52°   Visibility: 6mi
Dew Point: 46°   Wind: 13mph
Humidity: 82%   Direction: 230°SW
Pressure: 29.91"   Gusts: NA
Location:  53.77°N, 2.23°W
Report Text: EGNM 251820Z 23011KT 190V270 9999 SCT043 11/08 Q1013
Loading
Personal Weather Stations






























Interactive Weather Map
Tropical Storm Tracking
New forecast layout! Learn more

10-Day Weather Forecast

Advertisements
Track Severe Weather on mobile